createdAt,value
2018-04-22T00:00:23.673Z,85.70
2018-04-22T00:02:27.122Z,85.60
2018-04-22T00:04:29.716Z,85.60
2018-04-22T00:06:32.344Z,85.60
2018-04-22T00:08:34.947Z,85.80
2018-04-22T00:10:37.552Z,86.00
2018-04-22T00:12:40.212Z,86.00
2018-04-22T00:14:42.798Z,86.10
2018-04-22T00:16:45.391Z,86.30
2018-04-22T00:18:48.774Z,86.30
2018-04-22T00:20:51.381Z,86.30
2018-04-22T00:22:54.000Z,86.50
2018-04-22T00:24:56.600Z,86.90
2018-04-22T00:26:59.959Z,87.30
2018-04-22T00:29:02.564Z,87.30
2018-04-22T00:31:05.151Z,87.50
2018-04-22T00:33:08.643Z,87.60
2018-04-22T00:35:11.997Z,87.60
2018-04-22T00:37:14.592Z,87.60
2018-04-22T00:39:17.192Z,87.60
2018-04-22T00:41:20.548Z,87.70
2018-04-22T00:43:23.191Z,87.70
2018-04-22T00:45:25.832Z,87.60
2018-04-22T00:47:29.195Z,87.60
2018-04-22T00:49:31.820Z,87.60
2018-04-22T00:51:34.447Z,87.90
2018-04-22T00:53:48.805Z,88.00
2018-04-22T00:55:51.400Z,87.80
2018-04-22T00:57:54.009Z,87.90
2018-04-22T00:59:56.616Z,88.00
2018-04-22T01:01:59.201Z,87.80
2018-04-22T01:04:01.822Z,88.00
2018-04-22T01:06:04.426Z,88.00
2018-04-22T01:08:07.036Z,88.20
2018-04-22T01:10:10.396Z,88.50
2018-04-22T01:12:13.004Z,88.50
2018-04-22T01:14:16.392Z,88.60
2018-04-22T01:16:19.747Z,88.80
2018-04-22T01:18:22.352Z,88.70
2018-04-22T01:20:25.712Z,88.70
2018-04-22T01:22:28.325Z,88.70
2018-04-22T01:24:31.763Z,88.50
2018-04-22T01:26:34.427Z,88.50
2018-04-22T01:28:37.052Z,88.70
2018-04-22T01:30:39.644Z,89.00
2018-04-22T01:32:43.004Z,89.70
2018-04-22T01:34:45.605Z,89.70
2018-04-22T01:36:48.215Z,89.80
2018-04-22T01:38:50.833Z,89.70
2018-04-22T01:40:53.423Z,90.10
2018-04-22T01:42:56.024Z,89.70
2018-04-22T01:44:59.392Z,89.00
2018-04-22T01:47:01.988Z,89.00
2018-04-22T01:49:05.375Z,89.10
2018-04-22T01:51:08.728Z,89.40
2018-04-22T01:53:11.368Z,89.40
2018-04-22T01:55:13.961Z,89.50
2018-04-22T01:57:16.552Z,89.80
2018-04-22T01:59:19.958Z,90.00
2018-04-22T02:01:23.346Z,89.80
2018-04-22T02:03:25.969Z,89.80
2018-04-22T02:05:28.604Z,89.80
2018-04-22T02:07:31.198Z,89.80
2018-04-22T02:09:34.619Z,90.20
2018-04-22T02:11:37.221Z,90.20
2018-04-22T02:13:39.883Z,90.10
2018-04-22T02:15:42.474Z,89.90
2018-04-22T02:17:45.899Z,89.80
2018-04-22T02:19:48.508Z,90.20
2018-04-22T02:21:51.157Z,90.30
2018-04-22T02:23:54.555Z,90.40
2018-04-22T02:25:58.172Z,90.60
2018-04-22T02:28:00.786Z,90.60
2018-04-22T02:30:03.389Z,90.70
2018-04-22T02:32:06.112Z,90.90
2018-04-22T02:34:08.725Z,90.90
2018-04-22T02:36:11.325Z,90.80
2018-04-22T02:38:14.700Z,90.90
2018-04-22T02:40:17.320Z,90.90
2018-04-22T02:42:19.907Z,91.00
2018-04-22T02:44:22.604Z,91.10
2018-04-22T02:46:25.208Z,91.00
2018-04-22T02:48:28.581Z,91.10
2018-04-22T02:50:31.317Z,91.10
2018-04-22T02:52:33.943Z,91.10
2018-04-22T02:54:36.556Z,91.20
2018-04-22T02:56:39.216Z,91.00
2018-04-22T02:58:42.579Z,91.10
2018-04-22T03:00:45.213Z,91.00
2018-04-22T03:02:47.813Z,90.90
2018-04-22T03:04:50.473Z,90.90
2018-04-22T03:06:53.071Z,90.90
2018-04-22T03:08:55.668Z,91.10
2018-04-22T03:10:59.047Z,91.10
2018-04-22T03:13:01.712Z,91.10
2018-04-22T03:15:04.337Z,91.20
2018-04-22T03:17:06.965Z,91.30
2018-04-22T03:19:09.593Z,91.40
2018-04-22T03:21:12.316Z,91.50
2018-04-22T03:23:14.929Z,91.60
2018-04-22T03:25:17.536Z,91.70
2018-04-22T03:27:20.132Z,91.70
2018-04-22T03:29:22.750Z,91.60
2018-04-22T03:31:25.376Z,91.70
2018-04-22T03:33:28.007Z,91.70
2018-04-22T03:35:30.628Z,91.70
2018-04-22T03:37:33.216Z,91.80
2018-04-22T03:39:35.832Z,91.80
2018-04-22T03:41:38.492Z,91.90
2018-04-22T03:43:41.100Z,92.10
2018-04-22T03:45:43.721Z,91.90
2018-04-22T03:47:46.318Z,91.90
2018-04-22T03:49:49.695Z,91.90
2018-04-22T03:51:52.283Z,91.90
2018-04-22T03:53:55.680Z,92.00
2018-04-22T03:55:59.044Z,92.00
2018-04-22T03:58:01.636Z,92.00
2018-04-22T04:00:05.015Z,91.90
2018-04-22T04:02:07.608Z,91.80
2018-04-22T04:04:10.964Z,91.60
2018-04-22T04:06:13.576Z,91.60
2018-04-22T04:08:16.936Z,91.40
2018-04-22T04:10:19.903Z,91.40
2018-04-22T04:12:22.503Z,91.30
2018-04-22T04:14:25.119Z,91.30
2018-04-22T04:16:27.741Z,91.10
2018-04-22T04:21:25.720Z,91.20
2018-04-22T04:23:40.221Z,91.30
2018-04-22T04:25:54.683Z,91.40
2018-04-22T04:27:57.273Z,91.40
2018-04-22T04:29:59.896Z,91.40
2018-04-22T04:32:02.506Z,91.40
2018-04-22T04:34:05.102Z,91.40
2018-04-22T04:36:07.841Z,91.60
2018-04-22T04:38:10.386Z,91.50
2018-04-22T04:40:13.003Z,91.70
2018-04-22T04:42:15.603Z,91.90
2018-04-22T04:44:18.204Z,91.80
2018-04-22T04:46:20.808Z,91.90
2018-04-22T04:48:24.159Z,91.80
2018-04-22T04:50:26.886Z,91.80
2018-04-22T04:52:29.483Z,91.80
2018-04-22T04:54:32.076Z,91.80
2018-04-22T04:56:34.753Z,91.80
2018-04-22T04:58:37.459Z,92.00
2018-04-22T05:00:40.067Z,92.20
2018-04-22T05:02:42.680Z,92.00
2018-04-22T05:04:45.302Z,92.00
2018-04-22T05:06:48.689Z,91.70
2018-04-22T05:08:52.056Z,91.80
2018-04-22T05:10:54.839Z,91.80
2018-04-22T05:12:57.436Z,91.70
2018-04-22T05:15:00.803Z,91.70
2018-04-22T05:17:03.416Z,91.70
2018-04-22T05:19:06.017Z,91.50
2018-04-22T05:21:08.636Z,91.60
2018-04-22T05:23:11.236Z,91.80
2018-04-22T05:25:13.859Z,91.90
2018-04-22T05:27:16.484Z,92.00
2018-04-22T05:29:19.084Z,92.20
2018-04-22T05:31:21.708Z,92.30
2018-04-22T05:33:24.328Z,92.30
2018-04-22T05:35:26.924Z,92.40
2018-04-22T05:37:29.565Z,92.50
2018-04-22T05:39:32.437Z,92.40
2018-04-22T05:41:35.816Z,92.60
2018-04-22T05:43:40.140Z,92.60
2018-04-22T05:45:43.512Z,92.50
2018-04-22T05:47:46.119Z,92.50
2018-04-22T05:49:48.719Z,92.50
2018-04-22T05:51:51.574Z,92.20
2018-04-22T05:53:54.174Z,92.20
2018-04-22T05:55:56.784Z,92.10
2018-04-22T05:57:59.600Z,92.10
2018-04-22T06:00:02.211Z,92.30
2018-04-22T06:02:04.812Z,92.20
2018-04-22T06:04:07.410Z,91.90
2018-04-22T06:06:10.776Z,91.60
2018-04-22T06:08:13.392Z,91.60
2018-04-22T06:10:15.995Z,91.50
2018-04-22T06:12:18.665Z,91.60
2018-04-22T06:14:21.263Z,91.60
2018-04-22T06:16:23.880Z,91.50
2018-04-22T06:18:27.266Z,91.60
2018-04-22T06:20:30.688Z,91.60
2018-04-22T06:22:33.307Z,91.60
2018-04-22T06:24:35.941Z,91.60
2018-04-22T06:26:39.534Z,91.60
2018-04-22T06:28:42.115Z,91.70
2018-04-22T06:30:44.732Z,91.60
2018-04-22T06:32:47.466Z,91.70
2018-04-22T06:34:50.063Z,91.60
2018-04-22T06:36:52.673Z,91.60
2018-04-22T06:38:56.027Z,91.50
2018-04-22T06:40:58.649Z,91.50
2018-04-22T06:43:02.037Z,91.30
2018-04-22T06:45:05.440Z,91.30
2018-04-22T06:47:08.889Z,90.90
2018-04-22T06:49:11.505Z,90.80
2018-04-22T06:51:14.908Z,91.00
2018-04-22T06:53:18.446Z,90.90
2018-04-22T06:55:21.134Z,91.00
2018-04-22T06:57:23.740Z,90.80
2018-04-22T06:59:27.096Z,90.80
2018-04-22T07:01:29.712Z,90.80
2018-04-22T07:03:33.113Z,90.80
2018-04-22T07:05:35.709Z,90.80
2018-04-22T07:07:38.501Z,90.80
2018-04-22T07:09:41.122Z,90.70
2018-04-22T07:11:44.503Z,90.50
2018-04-22T07:13:47.105Z,90.50
2018-04-22T07:15:50.472Z,90.10
2018-04-22T07:17:53.940Z,90.10
2018-04-22T07:19:56.532Z,90.30
2018-04-22T07:21:59.196Z,90.50
2018-04-22T07:24:01.866Z,90.30
2018-04-22T07:26:05.372Z,90.20
2018-04-22T07:28:08.000Z,90.10
2018-04-22T07:30:10.605Z,90.00
2018-04-22T07:32:13.261Z,89.80
2018-04-22T07:34:16.585Z,90.00
2018-04-22T07:36:19.180Z,90.00
2018-04-22T07:38:21.782Z,90.10
2018-04-22T07:40:24.384Z,90.50
2018-04-22T07:42:27.068Z,90.10
2018-04-22T07:44:30.388Z,90.20
2018-04-22T07:46:33.007Z,90.20
2018-04-22T07:48:35.643Z,90.00
2018-04-22T07:50:38.836Z,90.00
2018-04-22T07:52:42.203Z,89.30
2018-04-22T07:54:44.795Z,89.20
2018-04-22T07:56:47.456Z,88.50
2018-04-22T07:58:50.049Z,88.30
2018-04-22T08:00:52.640Z,87.70
2018-04-22T08:02:55.279Z,88.10
2018-04-22T08:04:57.863Z,88.30
2018-04-22T08:07:00.495Z,87.30
2018-04-22T08:09:03.107Z,87.30
2018-04-22T08:11:05.710Z,86.00
2018-04-22T08:13:09.112Z,86.50
2018-04-22T08:15:11.773Z,86.50
2018-04-22T08:17:15.144Z,84.60
2018-04-22T08:19:17.761Z,84.60
2018-04-22T08:21:20.364Z,83.80
2018-04-22T08:23:22.987Z,83.10
2018-04-22T08:25:26.363Z,83.00
2018-04-22T08:27:29.022Z,83.00
2018-04-22T08:29:31.763Z,83.10
2018-04-22T08:31:34.523Z,84.20
2018-04-22T08:33:38.251Z,82.50
2018-04-22T08:35:40.984Z,82.50
2018-04-22T08:37:43.786Z,82.60
2018-04-22T08:39:46.415Z,81.60
2018-04-22T08:41:49.350Z,81.50
2018-04-22T08:43:52.192Z,81.40
2018-04-22T08:45:55.000Z,81.20
2018-04-22T08:47:58.546Z,82.10
2018-04-22T08:50:01.137Z,82.10
2018-04-22T08:52:03.813Z,81.70
2018-04-22T08:54:06.431Z,80.50
2018-04-22T08:56:09.294Z,80.60
2018-04-22T08:58:12.712Z,82.00
2018-04-22T09:00:15.339Z,82.10
2018-04-22T09:02:17.960Z,80.80
2018-04-22T09:04:20.549Z,81.60
2018-04-22T09:06:23.234Z,80.40
2018-04-22T09:08:25.876Z,80.30
2018-04-22T09:10:28.484Z,81.10
2018-04-22T09:12:31.096Z,81.50
2018-04-22T09:14:33.692Z,81.80
2018-04-22T09:16:36.303Z,80.00
2018-04-22T09:18:38.915Z,80.00
2018-04-22T09:20:41.501Z,79.80
2018-04-22T09:22:44.892Z,79.80
2018-04-22T09:24:48.263Z,78.50
2018-04-22T09:26:50.925Z,78.50
2018-04-22T09:28:53.535Z,76.70
2018-04-22T09:30:56.885Z,77.70
2018-04-22T09:32:59.497Z,77.70
2018-04-22T09:35:02.853Z,76.00
2018-04-22T09:37:05.447Z,75.90
2018-04-22T09:39:08.074Z,74.90
2018-04-22T09:41:10.822Z,76.40
2018-04-22T09:43:14.254Z,74.70
2018-04-22T09:45:16.844Z,74.60
2018-04-22T09:47:20.233Z,75.40
2018-04-22T09:49:22.822Z,75.40
2018-04-22T09:51:25.517Z,73.90
2018-04-22T09:53:28.194Z,75.10
2018-04-22T09:55:30.748Z,74.50
2018-04-22T09:57:33.797Z,74.90
2018-04-22T09:59:36.880Z,75.10
2018-04-22T10:01:39.484Z,74.70
2018-04-22T10:03:42.099Z,74.80
2018-04-22T10:05:50.623Z,73.90
2018-04-22T10:07:53.323Z,73.90
2018-04-22T10:09:56.828Z,72.80
2018-04-22T10:11:59.520Z,73.00
2018-04-22T10:14:02.141Z,73.20
2018-04-22T10:16:06.196Z,72.70
2018-04-22T10:18:08.815Z,72.60
2018-04-22T10:20:12.185Z,72.50
2018-04-22T10:22:14.872Z,72.40
2018-04-22T10:24:17.470Z,71.80
2018-04-22T10:26:20.981Z,69.20
2018-04-22T10:28:23.590Z,69.20
2018-04-22T10:30:26.209Z,68.90
2018-04-22T10:32:29.566Z,67.50
2018-04-22T10:34:32.191Z,67.30
2018-04-22T10:36:34.771Z,68.00
2018-04-22T10:38:37.369Z,67.60
2018-04-22T10:40:46.375Z,66.20
2018-04-22T10:42:54.728Z,65.60
2018-04-22T10:45:01.215Z,64.00
2018-04-22T10:47:08.181Z,61.30
2018-04-22T10:49:19.136Z,61.30
2018-04-22T10:51:25.995Z,59.70
2018-04-22T10:53:31.621Z,60.40
2018-04-22T10:55:34.210Z,62.10
2018-04-22T10:57:36.795Z,59.20
2018-04-22T10:59:39.769Z,59.90
2018-04-22T11:01:42.367Z,61.80
2018-04-22T11:03:44.981Z,64.80
2018-04-22T11:05:47.604Z,68.00
2018-04-22T11:07:50.202Z,64.20
2018-04-22T11:09:52.826Z,66.30
2018-04-22T11:11:55.424Z,69.40
2018-04-22T11:13:58.069Z,68.10
2018-04-22T11:16:00.676Z,65.90
2018-04-22T11:18:03.264Z,65.00
2018-04-22T11:20:05.962Z,57.00
2018-04-22T11:22:09.413Z,57.40
2018-04-22T11:24:11.995Z,57.50
2018-04-22T11:26:14.581Z,59.80
2018-04-22T11:28:17.191Z,55.60
2018-04-22T11:30:19.938Z,54.70
2018-04-22T11:32:22.535Z,54.80
2018-04-22T11:34:26.016Z,55.20
2018-04-22T11:36:29.379Z,55.20
2018-04-22T11:38:31.977Z,55.00
2018-04-22T11:40:34.613Z,55.50
2018-04-22T11:42:37.968Z,53.30
2018-04-22T11:44:41.340Z,49.60
2018-04-22T11:46:43.927Z,49.70
2018-04-22T11:48:47.360Z,51.30
2018-04-22T11:50:49.993Z,51.30
2018-04-22T11:52:53.037Z,49.90
2018-04-22T11:54:59.466Z,49.20
2018-04-22T11:57:09.133Z,48.90
2018-04-22T11:59:15.157Z,46.70
2018-04-22T12:01:21.220Z,48.10
2018-04-22T12:03:26.994Z,48.00
2018-04-22T12:05:30.975Z,45.80
2018-04-22T12:07:37.506Z,48.30
2018-04-22T12:09:45.380Z,45.60
2018-04-22T12:11:48.247Z,45.60
2018-04-22T12:13:50.864Z,45.50
2018-04-22T12:15:54.279Z,43.90
2018-04-22T12:17:59.116Z,43.80
2018-04-22T12:20:01.819Z,44.10
2018-04-22T12:22:04.773Z,44.30
2018-04-22T12:24:07.366Z,44.10
2018-04-22T12:26:09.984Z,44.90
2018-04-22T12:28:13.432Z,45.00
2018-04-22T12:30:16.080Z,45.00
2018-04-22T12:32:18.699Z,44.20
2018-04-22T12:34:21.302Z,43.70
2018-04-22T12:36:23.930Z,43.80
2018-04-22T12:38:26.609Z,43.10
2018-04-22T12:40:29.997Z,44.60
2018-04-22T12:42:32.619Z,44.00
2018-04-22T12:44:37.650Z,45.50
2018-04-22T12:46:41.027Z,45.30
2018-04-22T12:48:47.500Z,44.90
2018-04-22T12:50:50.130Z,45.80
2018-04-22T12:52:52.778Z,44.50
2018-04-22T12:54:55.392Z,44.30
2018-04-22T12:56:58.000Z,44.40
2018-04-22T12:59:00.651Z,43.80
2018-04-22T13:01:03.289Z,43.70
2018-04-22T13:03:05.906Z,45.60
2018-04-22T13:05:10.206Z,44.30
2018-04-22T13:07:12.841Z,44.30
2018-04-22T13:09:15.444Z,43.50
2018-04-22T13:11:18.052Z,44.40
2018-04-22T13:13:20.659Z,44.00
2018-04-22T13:15:23.278Z,44.50
2018-04-22T13:17:25.877Z,43.20
2018-04-22T13:19:28.516Z,44.90
2018-04-22T13:21:32.936Z,43.40
2018-04-22T13:23:35.535Z,44.70
2018-04-22T13:25:38.172Z,44.10
2018-04-22T13:27:40.770Z,44.20
2018-04-22T13:29:43.399Z,44.20
2018-04-22T13:31:46.780Z,44.60
2018-04-22T13:33:49.476Z,44.60
2018-04-22T13:35:52.105Z,42.70
2018-04-22T13:37:54.708Z,42.60
2018-04-22T13:39:57.297Z,41.80
2018-04-22T13:41:59.921Z,42.40
2018-04-22T13:44:02.656Z,43.20
2018-04-22T13:46:05.276Z,44.10
2018-04-22T13:48:07.868Z,42.70
2018-04-22T13:50:10.480Z,41.20
2018-04-22T13:52:13.093Z,42.30
2018-04-22T13:54:15.715Z,42.50
2018-04-22T13:56:19.094Z,41.60
2018-04-22T13:58:22.483Z,41.40
2018-04-22T14:00:25.084Z,41.20
2018-04-22T14:02:27.707Z,41.30
2018-04-22T14:04:30.324Z,43.00
2018-04-22T14:06:32.988Z,41.60
2018-04-22T14:08:36.359Z,43.20
2018-04-22T14:10:38.959Z,43.20
2018-04-22T14:12:42.353Z,45.00
2018-04-22T14:14:45.716Z,44.40
2018-04-22T14:16:48.363Z,44.30
2018-04-22T14:18:50.968Z,42.70
2018-04-22T14:20:53.605Z,42.20
2018-04-22T14:22:56.227Z,43.50
2018-04-22T14:24:58.816Z,43.00
2018-04-22T14:27:02.207Z,44.10
2018-04-22T14:29:05.576Z,45.60
2018-04-22T14:31:08.239Z,45.50
2018-04-22T14:33:10.837Z,43.50
2018-04-22T14:35:13.444Z,44.70
2018-04-22T14:37:16.060Z,45.60
2018-04-22T14:39:18.700Z,44.70
2018-04-22T14:41:21.316Z,43.70
2018-04-22T14:43:23.961Z,43.40
2018-04-22T14:45:38.464Z,42.70
2018-04-22T14:47:41.116Z,43.30
2018-04-22T14:49:43.719Z,43.00
2018-04-22T14:51:47.100Z,44.70
2018-04-22T14:53:49.700Z,44.70
2018-04-22T14:55:52.333Z,44.70
2018-04-22T14:57:54.982Z,45.20
2018-04-22T14:59:57.575Z,43.80
2018-04-22T15:02:00.201Z,45.30
2018-04-22T15:04:02.813Z,43.70
2018-04-22T15:06:05.429Z,43.80
2018-04-22T15:08:08.827Z,43.60
2018-04-22T15:10:12.198Z,42.70
2018-04-22T15:12:14.805Z,42.70
2018-04-22T15:14:18.152Z,43.40
2018-04-22T15:16:20.761Z,43.40
2018-04-22T15:18:24.159Z,45.80
2018-04-22T15:20:28.293Z,47.00
2018-04-22T15:22:30.908Z,47.00
2018-04-22T15:24:33.516Z,44.30
2018-04-22T15:26:36.952Z,47.70
2018-04-22T15:28:39.562Z,47.60
2018-04-22T15:30:42.911Z,44.20
2018-04-22T15:32:45.503Z,44.20
2018-04-22T15:34:48.873Z,47.10
2018-04-22T15:36:51.507Z,46.50
2018-04-22T15:38:54.132Z,47.00
2018-04-22T15:40:56.741Z,46.30
2018-04-22T15:42:59.371Z,47.70
2018-04-22T15:45:02.060Z,48.40
2018-04-22T15:47:04.663Z,51.90
2018-04-22T15:49:07.313Z,61.10
2018-04-22T15:51:09.962Z,66.00
2018-04-22T15:53:12.572Z,65.80
2018-04-22T15:55:15.163Z,69.60
2018-04-22T15:57:19.281Z,75.00
2018-04-22T15:59:21.883Z,74.60
2018-04-22T16:01:25.358Z,79.50
2018-04-22T16:03:27.960Z,79.00
2018-04-22T16:05:31.328Z,69.60
2018-04-22T16:07:33.927Z,69.60
2018-04-22T16:09:37.308Z,66.70
2018-04-22T16:11:40.736Z,75.40
2018-04-22T16:13:43.345Z,74.80
2018-04-22T16:15:45.960Z,74.50
2018-04-22T16:17:49.364Z,74.20
2018-04-22T16:19:52.000Z,74.20
2018-04-22T16:21:54.600Z,78.10
2018-04-22T16:23:57.983Z,81.80
2018-04-22T16:26:01.346Z,81.20
2018-04-22T16:28:03.957Z,80.90
2018-04-22T16:30:06.581Z,78.90
2018-04-22T16:32:09.184Z,80.00
2018-04-22T16:34:12.678Z,80.50
2018-04-22T16:36:15.282Z,84.90
2018-04-22T16:38:17.912Z,76.70
2018-04-22T16:40:20.521Z,79.60
2018-04-22T16:42:23.892Z,84.60
2018-04-22T16:44:26.506Z,84.50
2018-04-22T16:46:31.074Z,85.40
2018-04-22T16:48:35.776Z,86.20
2018-04-22T16:50:40.725Z,86.40
2018-04-22T16:52:43.465Z,84.00
2018-04-22T16:54:46.064Z,84.90
2018-04-22T16:56:48.660Z,83.50
2018-04-22T16:58:51.289Z,82.30
2018-04-22T17:00:53.928Z,81.30
2018-04-22T17:02:57.318Z,81.30
2018-04-22T17:04:59.951Z,81.20
2018-04-22T17:07:02.568Z,82.40
2018-04-22T17:09:06.680Z,84.00
2018-04-22T17:11:10.049Z,85.90
2018-04-22T17:13:12.669Z,85.80
2018-04-22T17:15:15.316Z,86.70
2018-04-22T17:17:17.917Z,87.10
2018-04-22T17:19:20.536Z,87.00
2018-04-22T17:21:23.121Z,89.00
2018-04-22T17:23:25.816Z,90.20
2018-04-22T17:25:28.416Z,90.20
2018-04-22T17:27:31.026Z,90.90
2018-04-22T17:29:33.647Z,91.20
2018-04-22T17:31:37.011Z,92.20
2018-04-22T17:33:39.634Z,92.20
2018-04-22T17:35:42.215Z,93.00
2018-04-22T17:37:44.800Z,93.30
2018-04-22T17:39:48.213Z,94.20
2018-04-22T17:41:51.562Z,92.80
2018-04-22T17:43:54.199Z,92.80
2018-04-22T17:45:56.822Z,93.10
2018-04-22T17:47:59.472Z,93.20
2018-04-22T17:50:02.852Z,93.80
2018-04-22T17:52:05.451Z,93.80
2018-04-22T17:54:08.154Z,94.10
2018-04-22T17:56:10.755Z,94.10
2018-04-22T17:58:13.371Z,94.20
2018-04-22T18:00:16.781Z,93.70
2018-04-22T18:02:19.380Z,93.70
2018-04-22T18:04:22.010Z,93.50
2018-04-22T18:06:25.419Z,94.30
2018-04-22T18:08:28.045Z,94.20
2018-04-22T18:10:30.636Z,94.40
2018-04-22T18:12:33.244Z,95.20
2018-04-22T18:14:36.297Z,95.50
2018-04-22T18:16:38.924Z,95.60
2018-04-22T18:18:41.586Z,96.10
2018-04-22T18:20:44.239Z,95.80
2018-04-22T18:22:47.677Z,95.30
2018-04-22T18:24:50.365Z,95.30
2018-04-22T18:26:52.975Z,95.60
2018-04-22T18:28:56.362Z,96.40
2018-04-22T18:30:59.003Z,96.40
2018-04-22T18:33:01.673Z,96.60
2018-04-22T18:35:04.451Z,96.50
2018-04-22T18:37:07.057Z,96.80
2018-04-22T18:39:09.695Z,97.10
2018-04-22T18:41:12.409Z,97.10
2018-04-22T18:43:15.047Z,97.30
2018-04-22T18:45:17.676Z,97.20
2018-04-22T18:47:21.041Z,97.20
2018-04-22T18:49:23.654Z,97.20
2018-04-22T18:51:26.296Z,97.20
2018-04-22T18:53:28.930Z,97.20
2018-04-22T18:55:31.557Z,97.10
2018-04-22T18:57:34.946Z,97.40
2018-04-22T18:59:37.623Z,97.20
2018-04-22T19:01:40.211Z,97.40
2018-04-22T19:03:43.603Z,97.30
2018-04-22T19:05:47.048Z,97.40
2018-04-22T19:07:49.872Z,97.40
2018-04-22T19:09:53.266Z,97.30
2018-04-22T19:11:56.644Z,97.20
2018-04-22T19:13:59.272Z,97.20
2018-04-22T19:16:01.867Z,97.50
2018-04-22T19:18:04.463Z,97.80
2018-04-22T19:20:07.116Z,97.90
2018-04-22T19:22:09.716Z,97.90
2018-04-22T19:24:12.381Z,97.80
2018-04-22T19:26:14.981Z,97.90
2018-04-22T19:28:18.350Z,97.60
2018-04-22T19:30:20.981Z,97.60
2018-04-22T19:32:23.577Z,97.40
2018-04-22T19:34:26.204Z,97.10
2018-04-22T19:36:28.795Z,96.90
2018-04-22T19:38:31.411Z,96.90
2018-04-22T19:40:34.038Z,96.80
2018-04-22T19:42:36.661Z,96.90
2018-04-22T19:44:39.276Z,97.00
2018-04-22T19:46:42.644Z,97.50
2018-04-22T19:48:45.260Z,97.50
2018-04-22T19:50:47.880Z,97.30
2018-04-22T19:52:50.474Z,97.30
2018-04-22T19:54:53.100Z,97.30
2018-04-22T19:56:55.716Z,97.20
2018-04-22T19:58:58.409Z,97.10
2018-04-22T20:01:01.788Z,96.60
2018-04-22T20:03:04.374Z,96.50
2018-04-22T20:05:06.992Z,96.60
2018-04-22T20:07:09.651Z,96.50
2018-04-22T20:09:12.700Z,96.60
2018-04-22T20:11:15.391Z,96.60
2018-04-22T20:13:19.582Z,96.90
2018-04-22T20:15:22.988Z,96.70
2018-04-22T20:17:25.582Z,96.70
2018-04-22T20:19:28.969Z,96.60
2018-04-22T20:21:33.053Z,96.60
2018-04-22T20:23:35.662Z,96.60
2018-04-22T20:25:39.040Z,97.00
2018-04-22T20:27:42.401Z,97.10
2018-04-22T20:29:45.037Z,97.10
2018-04-22T20:31:47.643Z,97.20
2018-04-22T20:33:50.235Z,97.20
2018-04-22T20:35:52.865Z,97.40
2018-04-22T20:37:55.484Z,97.30
2018-04-22T20:39:58.375Z,97.40
2018-04-22T20:42:00.964Z,97.10
2018-04-22T20:44:04.322Z,97.10
2018-04-22T20:46:06.932Z,97.00
2018-04-22T20:48:10.391Z,97.40
2018-04-22T20:50:13.016Z,97.40
2018-04-22T20:52:15.616Z,97.40
2018-04-22T20:54:18.248Z,97.40
2018-04-22T20:56:21.635Z,97.20
2018-04-22T20:58:26.068Z,97.20
2018-04-22T21:00:29.454Z,97.10
2018-04-22T21:02:32.867Z,97.00
2018-04-22T21:04:35.480Z,97.00
2018-04-22T21:06:38.107Z,96.90
2018-04-22T21:08:40.711Z,97.00
2018-04-22T21:10:43.883Z,96.80
2018-04-22T21:12:46.484Z,96.70
2018-04-22T21:14:49.102Z,96.70
2018-04-22T21:16:52.476Z,96.50
2018-04-22T21:18:55.095Z,96.50
2018-04-22T21:20:57.703Z,96.30
2018-04-22T21:23:00.296Z,96.30
2018-04-22T21:25:02.899Z,96.40
2018-04-22T21:27:06.279Z,96.60
2018-04-22T21:29:09.943Z,96.70
2018-04-22T21:31:13.379Z,96.70
2018-04-22T21:33:16.748Z,96.90
2018-04-22T21:35:19.343Z,96.90
2018-04-22T21:37:22.903Z,96.90
2018-04-22T21:39:25.493Z,96.90
2018-04-22T21:41:28.104Z,96.90
2018-04-22T21:43:30.709Z,96.90
2018-04-22T21:45:33.321Z,97.00
2018-04-22T21:47:35.935Z,96.80
2018-04-22T21:49:38.524Z,97.00
2018-04-22T21:51:41.188Z,96.80
2018-04-22T21:53:43.810Z,96.80
2018-04-22T21:55:46.396Z,96.60
2018-04-22T21:57:48.974Z,96.40
2018-04-22T21:59:51.641Z,96.50
2018-04-22T22:01:54.303Z,96.40
2018-04-22T22:03:56.883Z,96.20
2018-04-22T22:05:59.513Z,96.20
2018-04-22T22:08:02.113Z,96.10
2018-04-22T22:10:04.716Z,96.30
2018-04-22T22:12:07.339Z,96.70
2018-04-22T22:14:09.917Z,96.80
2018-04-22T22:16:12.559Z,96.30
2018-04-22T22:18:15.924Z,96.10
2018-04-22T22:20:18.519Z,96.10
2018-04-22T22:22:21.894Z,96.20
2018-04-22T22:24:24.488Z,96.10
2018-04-22T22:26:27.863Z,96.50
2018-04-22T22:28:30.717Z,96.20
2018-04-22T22:30:33.304Z,96.30
2018-04-22T22:32:35.905Z,96.20
2018-04-22T22:34:39.271Z,95.80
2018-04-22T22:36:41.912Z,95.80
2018-04-22T22:38:44.626Z,95.90
2018-04-22T22:40:48.231Z,95.90
2018-04-22T22:42:50.856Z,96.00
2018-04-22T22:44:53.456Z,96.10
2018-04-22T22:46:56.160Z,96.00
2018-04-22T22:48:58.768Z,96.10
2018-04-22T22:51:01.395Z,96.10
2018-04-22T22:53:04.040Z,96.00
2018-04-22T22:55:06.764Z,96.00
2018-04-22T22:57:09.376Z,96.00
2018-04-22T22:59:11.971Z,96.00
2018-04-22T23:01:14.580Z,96.00
2018-04-22T23:03:17.186Z,95.90
2018-04-22T23:05:19.791Z,95.80
2018-04-22T23:07:22.405Z,95.80
2018-04-22T23:09:25.020Z,95.90
2018-04-22T23:11:27.620Z,95.50
2018-04-22T23:13:30.230Z,95.50
2018-04-22T23:15:32.817Z,95.50
2018-04-22T23:17:36.197Z,95.50
2018-04-22T23:19:38.784Z,95.50
2018-04-22T23:21:42.165Z,95.60
2018-04-22T23:23:44.766Z,95.60
2018-04-22T23:25:48.120Z,95.90
2018-04-22T23:27:50.720Z,95.90
2018-04-22T23:29:54.097Z,96.10
2018-04-22T23:31:56.815Z,96.10
2018-04-22T23:33:59.395Z,96.10
2018-04-22T23:36:01.982Z,96.50
2018-04-22T23:38:04.587Z,96.20
2018-04-22T23:40:07.169Z,96.20
2018-04-22T23:42:09.812Z,96.20
2018-04-22T23:44:12.403Z,96.10
2018-04-22T23:46:15.116Z,96.00
2018-04-22T23:48:18.507Z,95.80
2018-04-22T23:50:21.861Z,95.70
2018-04-22T23:52:24.476Z,95.70
2018-04-22T23:54:27.832Z,95.30
2018-04-22T23:56:30.560Z,95.30
2018-04-22T23:58:33.204Z,95.50
